Time;durP1;ratioP1;P1;durP2;ratioP2;P2;SDS_P1;SDS_P2;PMS_P1;PMS_P2;Temp;Humidity;BMP_temperature;BMP_pressure;BME280_temperature;BME280_humidity;BME280_pressure;Samples;Min_cycle;Max_cycle;Signal;HPM_P1;HPM_P2
2021/03/08 00:00:20;;;;;;;8.03;4.83;;;2.30;99.90;;;;;;4991552;28;20652;-78
2021/03/08 00:02:46;;;;;;;7.50;4.73;;;2.20;99.90;;;;;;4988443;28;20271;-78
2021/03/08 00:05:12;;;;;;;7.50;5.10;;;2.20;99.90;;;;;;4990486;28;20199;-78
2021/03/08 00:07:39;;;;;;;7.93;4.90;;;2.20;99.90;;;;;;4989967;28;20180;-79
2021/03/08 00:10:05;;;;;;;6.33;4.20;;;2.30;99.90;;;;;;4990154;28;20605;-79
2021/03/08 00:12:31;;;;;;;6.20;4.07;;;2.30;99.90;;;;;;4988589;28;20196;-78
2021/03/08 00:14:57;;;;;;;7.70;4.57;;;2.30;99.90;;;;;;4988503;28;20244;-78
2021/03/08 00:17:23;;;;;;;7.73;4.10;;;2.20;99.90;;;;;;4987680;28;20189;-77
2021/03/08 00:19:48;;;;;;;7.77;4.90;;;2.30;99.90;;;;;;4990256;28;20199;-77
2021/03/08 00:22:14;;;;;;;6.80;4.83;;;2.20;99.90;;;;;;4990180;28;20196;-77
2021/03/08 00:24:39;;;;;;;7.03;4.60;;;2.30;99.90;;;;;;4987688;28;20228;-77
2021/03/08 00:27:05;;;;;;;6.40;4.00;;;2.30;99.90;;;;;;4987936;28;20185;-78
2021/03/08 00:29:31;;;;;;;5.57;4.43;;;2.30;99.90;;;;;;4987628;28;20212;-78
2021/03/08 00:31:56;;;;;;;8.73;5.43;;;2.20;99.90;;;;;;4988412;28;20231;-78
2021/03/08 00:34:22;;;;;;;9.50;5.17;;;2.30;99.90;;;;;;4990396;28;20195;-77
2021/03/08 00:36:48;;;;;;;6.17;3.53;;;2.30;99.90;;;;;;4988774;28;20200;-79
2021/03/08 00:39:13;;;;;;;8.20;5.10;;;2.30;99.90;;;;;;4989321;28;20215;-79
2021/03/08 00:41:39;;;;;;;7.83;5.23;;;2.30;99.90;;;;;;5005788;28;20279;-78
2021/03/08 00:44:05;;;;;;;5.60;4.23;;;2.40;99.90;;;;;;4989321;28;20220;-78
2021/03/08 00:46:30;;;;;;;4.57;3.77;;;2.40;99.90;;;;;;4987639;28;20240;-79
2021/03/08 00:48:56;;;;;;;5.80;3.60;;;2.40;99.90;;;;;;4986534;28;20180;-78
2021/03/08 00:51:22;;;;;;;8.70;4.33;;;2.30;99.90;;;;;;4989212;28;20231;-77
2021/03/08 00:53:47;;;;;;;6.30;4.37;;;2.40;99.90;;;;;;4988705;28;20216;-77
2021/03/08 00:56:13;;;;;;;6.00;4.30;;;2.40;99.90;;;;;;4988355;28;20201;-78
2021/03/08 00:58:38;;;;;;;6.87;4.43;;;2.30;99.90;;;;;;4987169;28;20200;-77
2021/03/08 01:01:04;;;;;;;6.50;4.63;;;2.30;99.90;;;;;;4984242;28;20314;-78
2021/03/08 01:03:30;;;;;;;7.67;4.60;;;2.40;99.90;;;;;;4987587;28;20215;-78
2021/03/08 01:05:55;;;;;;;6.63;3.97;;;2.40;99.90;;;;;;5000898;28;20223;-79
2021/03/08 01:08:21;;;;;;;7.87;4.77;;;2.40;99.90;;;;;;4988186;28;20184;-79
2021/03/08 01:10:47;;;;;;;8.50;4.10;;;2.40;99.90;;;;;;5003258;28;20197;-77
2021/03/08 01:13:13;;;;;;;7.47;5.00;;;2.40;99.90;;;;;;4984531;28;20208;-78
2021/03/08 01:15:38;;;;;;;5.73;4.00;;;2.40;99.90;;;;;;4986741;28;20209;-78
2021/03/08 01:18:04;;;;;;;7.50;4.47;;;2.40;99.90;;;;;;4988726;28;20204;-77
2021/03/08 01:20:30;;;;;;;6.97;5.20;;;2.40;99.90;;;;;;4985220;28;20188;-77
2021/03/08 01:22:55;;;;;;;6.80;4.47;;;2.50;99.90;;;;;;4986465;28;20687;-78
2021/03/08 01:25:24;;;;;;;7.27;5.40;;;2.40;99.90;;;;;;4985656;28;20200;-78
2021/03/08 01:27:50;;;;;;;5.63;4.07;;;2.50;99.90;;;;;;5018161;28;20299;-78
2021/03/08 01:30:19;;;;;;;6.23;4.73;;;2.40;99.90;;;;;;4986167;28;20240;-78
2021/03/08 01:32:44;;;;;;;7.77;4.67;;;2.50;99.90;;;;;;4988212;28;20219;-77
2021/03/08 01:35:10;;;;;;;6.73;4.20;;;2.40;99.90;;;;;;4989652;28;20184;-77
2021/03/08 01:37:37;;;;;;;7.17;4.87;;;2.40;99.90;;;;;;4987455;28;20211;-79
2021/03/08 01:40:09;;;;;;;7.60;4.17;;;2.40;99.90;;;;;;4985927;28;20806;-79
2021/03/08 01:42:36;;;;;;;5.40;3.57;;;2.40;99.90;;;;;;5000085;28;20683;-80
2021/03/08 01:45:04;;;;;;;5.40;3.27;;;2.50;99.90;;;;;;4985823;28;20213;-79
2021/03/08 01:47:29;;;;;;;5.03;4.20;;;2.50;99.90;;;;;;4985601;28;20191;-79
2021/03/08 01:49:55;;;;;;;7.87;3.23;;;2.50;99.90;;;;;;4985636;28;20192;-78
2021/03/08 01:52:21;;;;;;;8.40;4.03;;;2.60;99.90;;;;;;4984878;28;20835;-78
2021/03/08 01:54:47;;;;;;;3.80;2.93;;;2.60;99.90;;;;;;4985079;28;20219;-80
2021/03/08 01:57:13;;;;;;;1.93;1.43;;;2.50;99.90;;;;;;4984114;28;20312;-79
2021/03/08 01:59:38;;;;;;;6.20;2.60;;;2.40;99.90;;;;;;4984093;28;20252;-78
2021/03/08 02:02:05;;;;;;;4.47;2.07;;;2.20;99.90;;;;;;5000726;28;20192;-80
2021/03/08 02:04:31;;;;;;;1.60;1.33;;;2.00;99.90;;;;;;4983187;28;21059;-78
2021/03/08 02:06:56;;;;;;;1.60;1.40;;;2.00;99.90;;;;;;4985522;28;20190;-77
2021/03/08 02:09:22;;;;;;;8.10;1.77;;;2.00;99.90;;;;;;4987135;28;20185;-78
2021/03/08 02:11:58;;;;;;;3.60;1.53;;;1.90;99.90;;;;;;4985119;28;20272;-79
2021/03/08 02:14:55;;;;;;;3.27;2.77;;;1.90;99.90;;;;;;4984251;28;20188;-79
2021/03/08 02:17:31;;;;;;;1.60;1.37;;;1.90;99.90;;;;;;4949402;28;20210;-77
2021/03/08 02:20:30;;;;;;;2.03;1.27;;;1.90;99.90;;;;;;4985275;28;20663;-79
2021/03/08 02:23:32;;;;;;;1.10;1.00;;;1.90;99.90;;;;;;4985584;28;20295;-79
2021/03/08 02:26:09;;;;;;;2.40;1.97;;;1.90;99.90;;;;;;5014583;28;20192;-78
2021/03/08 02:28:47;;;;;;;5.67;1.77;;;1.90;99.90;;;;;;4985615;28;20184;-78
2021/03/08 02:31:18;;;;;;;1.83;1.63;;;1.90;99.90;;;;;;4985224;28;20183;-78
2021/03/08 02:33:52;;;;;;;2.77;1.53;;;1.90;99.90;;;;;;4981268;28;20495;-79
2021/03/08 02:36:21;;;;;;;3.70;2.00;;;1.90;99.90;;;;;;4985309;28;20196;-80
2021/03/08 02:38:56;;;;;;;3.33;2.33;;;1.90;99.90;;;;;;4985833;28;20188;-78
2021/03/08 02:41:25;;;;;;;1.97;1.73;;;1.90;99.90;;;;;;4983489;28;20180;-77
2021/03/08 02:44:02;;;;;;;2.67;1.97;;;1.80;99.90;;;;;;4984397;28;20266;-77
2021/03/08 02:46:33;;;;;;;3.10;2.13;;;1.90;99.90;;;;;;4984970;28;20710;-79
2021/03/08 02:49:02;;;;;;;4.93;1.77;;;1.90;99.90;;;;;;4984109;28;20224;-78
2021/03/08 02:51:30;;;;;;;3.17;1.70;;;1.90;99.90;;;;;;4983217;28;20216;-76
2021/03/08 02:53:59;;;;;;;2.73;1.93;;;1.90;99.90;;;;;;4983746;28;20222;-79
2021/03/08 02:56:30;;;;;;;4.07;2.63;;;1.80;99.90;;;;;;4984518;28;20184;-79
2021/03/08 02:58:57;;;;;;;4.47;1.87;;;1.80;99.90;;;;;;4999298;28;20196;-78
2021/03/08 03:01:25;;;;;;;1.90;1.53;;;1.90;99.90;;;;;;4985187;28;20188;-79
2021/03/08 03:03:55;;;;;;;2.83;1.27;;;1.90;99.90;;;;;;4984677;28;20217;-79
2021/03/08 03:06:26;;;;;;;6.00;2.20;;;1.80;99.90;;;;;;4984248;28;20218;-77
2021/03/08 03:08:53;;;;;;;2.00;1.53;;;1.90;99.90;;;;;;4986899;28;20181;-77
2021/03/08 03:11:21;;;;;;;2.77;1.80;;;1.90;99.90;;;;;;4985194;28;20242;-78
2021/03/08 03:13:49;;;;;;;4.57;1.20;;;1.80;99.90;;;;;;4984145;28;20287;-77
2021/03/08 03:16:16;;;;;;;2.33;1.63;;;1.90;99.90;;;;;;4986588;28;20617;-78
2021/03/08 03:18:47;;;;;;;2.67;1.80;;;1.80;99.90;;;;;;4982473;28;20283;-77
2021/03/08 03:21:15;;;;;;;2.80;1.70;;;1.80;99.90;;;;;;4982151;28;20204;-78
2021/03/08 03:23:41;;;;;;;1.57;1.20;;;1.80;99.90;;;;;;4981859;28;20239;-77
2021/03/08 03:26:08;;;;;;;2.77;2.03;;;1.80;99.90;;;;;;4981485;28;20191;-78
2021/03/08 03:28:35;;;;;;;1.73;1.20;;;1.80;99.90;;;;;;4976699;28;20224;-77
2021/03/08 03:31:01;;;;;;;3.03;1.97;;;1.80;99.90;;;;;;4976917;28;20184;-78
2021/03/08 03:33:31;;;;;;;7.03;3.07;;;1.80;99.90;;;;;;4990698;28;20200;-77
2021/03/08 03:35:57;;;;;;;2.67;1.73;;;1.80;99.90;;;;;;4982982;28;20188;-79
2021/03/08 03:38:23;;;;;;;3.23;2.03;;;1.80;99.90;;;;;;4986178;28;20212;-78
2021/03/08 03:40:50;;;;;;;2.83;2.00;;;1.70;99.90;;;;;;4983892;28;20195;-78
2021/03/08 03:43:16;;;;;;;4.17;1.83;;;1.60;99.90;;;;;;4984270;28;20212;-79
2021/03/08 03:45:42;;;;;;;2.33;1.50;;;1.60;99.90;;;;;;4977517;28;20180;-80
2021/03/08 03:48:08;;;;;;;2.43;1.90;;;1.60;99.90;;;;;;4978546;28;20209;-79
2021/03/08 03:50:35;;;;;;;1.20;1.10;;;1.50;99.90;;;;;;4989567;28;20238;-79
2021/03/08 03:53:01;;;;;;;2.77;1.67;;;1.60;99.90;;;;;;4992816;28;20619;-79
2021/03/08 03:55:27;;;;;;;6.60;1.20;;;1.50;99.90;;;;;;4977404;28;20184;-78
2021/03/08 03:58:21;;;;;;;1.97;1.60;;;1.60;99.90;;;;;;4978248;28;20211;-79
2021/03/08 04:01:02;;;;;;;4.27;2.47;;;1.50;99.90;;;;;;4991852;28;20177;-79
2021/03/08 04:04:12;;;;;;;5.07;1.73;;;1.40;99.90;;;;;;4975834;28;20667;-79
2021/03/08 04:06:43;;;;;;;2.67;2.27;;;1.40;99.90;;;;;;4973107;28;20217;-79
2021/03/08 04:09:11;;;;;;;2.10;1.60;;;1.30;99.90;;;;;;4978444;28;20255;-79
2021/03/08 04:11:40;;;;;;;2.33;1.50;;;1.20;99.90;;;;;;4977281;28;20174;-79
2021/03/08 04:14:06;;;;;;;6.27;2.27;;;1.20;99.90;;;;;;4991936;28;20295;-79
2021/03/08 04:16:39;;;;;;;1.80;1.47;;;1.20;99.90;;;;;;4975259;28;20244;-79
2021/03/08 04:19:07;;;;;;;1.50;0.83;;;1.20;99.90;;;;;;4976466;28;20192;-79
2021/03/08 04:21:39;;;;;;;4.30;1.47;;;1.10;99.90;;;;;;4975022;28;20266;-79
2021/03/08 04:24:07;;;;;;;1.70;1.47;;;1.00;99.90;;;;;;5011534;28;20212;-79
2021/03/08 04:26:35;;;;;;;3.53;2.10;;;0.90;99.90;;;;;;4980467;28;20177;-79
2021/03/08 04:29:01;;;;;;;1.43;1.10;;;0.80;99.90;;;;;;5012162;28;20181;-80
2021/03/08 04:31:26;;;;;;;3.50;1.60;;;0.70;99.90;;;;;;4980408;28;20172;-79
2021/03/08 04:33:54;;;;;;;1.30;1.00;;;0.60;99.90;;;;;;4979314;28;20212;-79
2021/03/08 04:36:21;;;;;;;2.83;1.67;;;0.50;99.90;;;;;;4981370;28;20204;-79
2021/03/08 04:38:46;;;;;;;1.40;1.30;;;0.60;99.90;;;;;;4978209;28;20199;-78
2021/03/08 04:41:13;;;;;;;2.70;1.40;;;0.60;99.90;;;;;;4994975;28;20192;-79
2021/03/08 04:43:39;;;;;;;1.17;1.03;;;0.70;99.90;;;;;;4981605;28;20216;-79
2021/03/08 04:46:06;;;;;;;3.07;1.60;;;0.80;99.90;;;;;;4979772;28;20188;-79
2021/03/08 04:48:34;;;;;;;1.23;0.77;;;0.90;99.90;;;;;;4979419;28;20173;-79
2021/03/08 04:51:03;;;;;;;2.73;1.10;;;0.90;99.90;;;;;;4978848;28;20197;-79
2021/03/08 04:53:29;;;;;;;4.87;1.83;;;1.00;99.90;;;;;;4979418;28;20208;-79
2021/03/08 04:55:55;;;;;;;2.43;1.30;;;1.00;99.90;;;;;;4979292;28;20192;-80
2021/03/08 04:58:20;;;;;;;4.40;1.77;;;1.00;99.90;;;;;;4978822;28;20708;-79
2021/03/08 05:00:46;;;;;;;3.37;1.93;;;0.90;99.90;;;;;;4979184;28;20185;-79
2021/03/08 05:03:13;;;;;;;2.20;1.30;;;0.90;99.90;;;;;;4980727;28;20283;-79
2021/03/08 05:05:39;;;;;;;1.27;0.87;;;0.90;99.90;;;;;;5022477;28;20192;-78
2021/03/08 05:08:07;;;;;;;4.00;1.30;;;0.80;99.90;;;;;;4989412;28;20188;-77
2021/03/08 05:10:35;;;;;;;1.93;1.50;;;0.80;99.90;;;;;;4987441;28;20173;-78
2021/03/08 05:13:05;;;;;;;1.73;1.40;;;0.60;99.90;;;;;;4985812;28;20248;-79
2021/03/08 05:15:31;;;;;;;1.37;1.13;;;0.60;99.90;;;;;;4987494;28;20209;-78
2021/03/08 05:17:58;;;;;;;2.43;1.40;;;0.40;99.90;;;;;;4986710;28;20185;-79
2021/03/08 05:20:24;;;;;;;4.93;1.70;;;0.20;99.90;;;;;;4987192;28;20213;-79
2021/03/08 05:22:51;;;;;;;1.27;1.10;;;0.10;99.90;;;;;;5003465;28;20221;-79
2021/03/08 05:25:18;;;;;;;3.67;2.03;;;0.00;99.90;;;;;;4985424;28;20215;-77
2021/03/08 05:27:45;;;;;;;1.67;1.50;;;0.00;99.90;;;;;;4987857;28;20185;-79
2021/03/08 05:30:19;;;;;;;3.80;1.43;;;0.00;99.90;;;;;;4986747;28;20185;-79
2021/03/08 05:32:52;;;;;;;1.53;1.10;;;0.00;99.90;;;;;;5018821;28;20204;-79
2021/03/08 05:35:20;;;;;;;2.90;1.50;;;0.10;99.90;;;;;;4984191;28;20188;-78
2021/03/08 05:37:46;;;;;;;2.43;1.70;;;0.30;99.90;;;;;;4986897;28;20180;-78
2021/03/08 05:40:37;;;;;;;1.67;1.53;;;0.40;99.90;;;;;;4986577;28;20189;-77
2021/03/08 05:43:06;;;;;;;5.53;1.67;;;0.50;99.90;;;;;;4987653;28;20690;-78
2021/03/08 05:45:41;;;;;;;2.63;2.33;;;0.50;99.90;;;;;;4986189;28;20187;-78
2021/03/08 05:48:34;;;;;;;2.57;1.80;;;0.40;99.90;;;;;;4988202;28;20708;-79
2021/03/08 05:51:34;;;;;;;3.13;2.13;;;0.20;99.90;;;;;;4986353;28;20204;-78
2021/03/08 05:54:42;;;;;;;4.13;1.30;;;0.00;99.90;;;;;;4988627;28;20267;-79
2021/03/08 05:57:16;;;;;;;2.10;1.77;;;-0.10;99.90;;;;;;4988717;28;20226;-77
2021/03/08 06:00:12;;;;;;;2.73;1.10;;;-0.10;99.90;;;;;;4984804;28;20774;-77
2021/03/08 06:02:56;;;;;;;2.90;1.47;;;-0.20;99.90;;;;;;4986475;28;20304;-79
2021/03/08 06:06:05;;;;;;;1.50;1.17;;;-0.20;99.90;;;;;;4985236;28;20215;-78
2021/03/08 06:09:12;;;;;;;1.83;1.50;;;-0.20;99.90;;;;;;4985136;28;20235;-78
2021/03/08 06:11:45;;;;;;;4.87;1.07;;;-0.10;99.90;;;;;;5016815;28;20277;-77
2021/03/08 06:14:14;;;;;;;2.17;1.70;;;0.10;99.90;;;;;;4983490;28;20211;-76
2021/03/08 06:16:41;;;;;;;2.03;1.80;;;0.20;99.90;;;;;;4988196;28;20227;-77
2021/03/08 06:19:07;;;;;;;1.40;1.30;;;0.30;99.90;;;;;;4988203;28;20618;-79
2021/03/08 06:21:35;;;;;;;2.27;1.73;;;0.30;99.90;;;;;;4986916;28;20215;-79
2021/03/08 06:24:02;;;;;;;1.40;1.30;;;0.30;99.90;;;;;;4988530;28;20207;-77
2021/03/08 06:26:30;;;;;;;1.77;1.13;;;0.20;99.90;;;;;;4987905;28;20192;-78
2021/03/08 06:28:57;;;;;;;3.07;1.90;;;0.10;99.90;;;;;;5002739;28;20205;-77
2021/03/08 06:31:24;;;;;;;3.37;1.50;;;0.00;99.90;;;;;;4986411;28;20176;-77
2021/03/08 06:33:49;;;;;;;1.83;1.20;;;0.00;99.90;;;;;;4986331;28;20207;-77
2021/03/08 06:36:18;;;;;;;4.27;1.53;;;0.00;99.90;;;;;;4984314;28;20203;-78
2021/03/08 06:38:43;;;;;;;2.33;1.57;;;0.10;99.90;;;;;;4985771;28;20200;-78
2021/03/08 06:41:09;;;;;;;2.37;2.17;;;0.10;99.90;;;;;;4987720;28;20185;-78
2021/03/08 06:43:36;;;;;;;4.83;1.77;;;0.20;99.90;;;;;;4985175;28;20219;-78
2021/03/08 06:46:03;;;;;;;2.07;1.53;;;0.30;99.90;;;;;;4987394;28;20177;-77
2021/03/08 06:48:29;;;;;;;2.87;1.77;;;0.50;99.90;;;;;;4985198;28;20177;-78
2021/03/08 06:51:17;;;;;;;7.97;1.77;;;0.40;99.90;;;;;;5002169;28;20227;-77
2021/03/08 06:53:44;;;;;;;1.97;1.80;;;0.50;99.90;;;;;;4988325;28;20215;-78
2021/03/08 06:56:14;;;;;;;2.20;2.00;;;0.40;99.90;;;;;;4984905;28;20196;-77
2021/03/08 06:58:40;;;;;;;2.57;2.17;;;0.40;99.90;;;;;;4987378;28;20204;-78
2021/03/08 07:01:29;;;;;;;2.93;1.97;;;0.30;99.90;;;;;;4983691;28;20242;-77
2021/03/08 07:03:56;;;;;;;2.07;1.40;;;0.30;99.90;;;;;;4998714;28;20222;-77
2021/03/08 07:06:22;;;;;;;2.20;1.67;;;0.30;99.90;;;;;;4987119;28;20480;-78
2021/03/08 07:08:48;;;;;;;5.13;1.90;;;0.40;99.90;;;;;;4983821;28;20180;-78
2021/03/08 07:11:23;;;;;;;5.23;3.30;;;0.40;99.90;;;;;;4983719;28;20181;-78
2021/03/08 07:13:50;;;;;;;2.73;2.13;;;0.50;99.90;;;;;;4985830;28;20203;-77
2021/03/08 07:16:16;;;;;;;2.77;1.50;;;0.60;99.90;;;;;;4984576;28;20187;-77
2021/03/08 07:18:43;;;;;;;2.20;1.60;;;0.80;99.90;;;;;;4983896;28;20325;-77
2021/03/08 07:21:21;;;;;;;2.60;1.60;;;0.70;99.90;;;;;;4984721;28;20185;-77
2021/03/08 07:23:51;;;;;;;2.27;1.57;;;0.60;99.90;;;;;;4987099;28;20222;-77
2021/03/08 07:26:19;;;;;;;3.17;1.93;;;0.50;99.90;;;;;;4984021;28;20225;-77
2021/03/08 07:29:04;;;;;;;2.43;1.60;;;0.40;99.90;;;;;;4986068;28;20250;-78
2021/03/08 07:31:38;;;;;;;2.80;1.80;;;0.50;99.90;;;;;;5017559;28;20188;-78
2021/03/08 07:34:08;;;;;;;3.63;2.33;;;0.50;99.90;;;;;;4985360;28;20227;-76
2021/03/08 07:36:34;;;;;;;2.67;0.90;;;0.50;99.90;;;;;;4984978;28;20188;-78
2021/03/08 07:39:17;;;;;;;5.30;2.20;;;0.50;99.90;;;;;;4986754;28;20202;-77
2021/03/08 07:42:00;;;;;;;1.53;1.10;;;0.50;99.90;;;;;;5014363;28;20188;-77
2021/03/08 07:44:27;;;;;;;2.10;1.50;;;0.50;99.90;;;;;;4983279;28;20212;-78
2021/03/08 07:46:58;;;;;;;2.53;1.77;;;0.50;99.90;;;;;;4981998;28;20181;-77
2021/03/08 07:49:35;;;;;;;1.40;1.30;;;0.60;99.90;;;;;;4977651;28;582410;-77
2021/03/08 07:52:02;;;;;;;3.70;1.23;;;0.70;99.90;;;;;;5011816;28;20618;-77
2021/03/08 07:54:28;;;;;;;2.10;1.30;;;0.90;99.90;;;;;;4982423;28;20261;-77
2021/03/08 07:56:57;;;;;;;5.27;1.87;;;1.00;99.90;;;;;;4981675;28;20193;-78
2021/03/08 07:59:23;;;;;;;1.97;1.27;;;1.20;99.90;;;;;;4986584;28;20177;-77
2021/03/08 08:01:50;;;;;;;1.50;1.40;;;1.40;99.90;;;;;;4982609;28;20714;-79
2021/03/08 08:04:16;;;;;;;4.23;2.47;;;1.60;99.90;;;;;;4984263;28;20205;-78
2021/03/08 08:06:41;;;;;;;2.13;1.20;;;1.50;99.90;;;;;;4982635;28;20354;-77
2021/03/08 08:09:12;;;;;;;4.87;2.17;;;1.60;99.90;;;;;;4997946;28;20180;-77
2021/03/08 08:11:39;;;;;;;1.20;1.10;;;1.70;99.90;;;;;;4978900;28;20596;-78
2021/03/08 08:14:07;;;;;;;2.03;1.37;;;2.10;99.90;;;;;;4992319;28;20216;-77
2021/03/08 08:16:33;;;;;;;2.13;0.93;;;2.50;99.90;;;;;;4976573;28;20192;-78
2021/03/08 08:19:10;;;;;;;2.10;1.80;;;2.80;99.90;;;;;;4988401;28;20196;-79
2021/03/08 08:21:42;;;;;;;1.90;1.23;;;3.30;99.90;;;;;;4984644;28;20188;-77
2021/03/08 08:24:18;;;;;;;3.00;1.27;;;3.50;99.90;;;;;;4972164;28;20236;-79
2021/03/08 08:26:44;;;;;;;1.57;1.40;;;3.80;99.90;;;;;;4979609;28;20264;-77
2021/03/08 08:29:11;;;;;;;4.20;2.00;;;3.80;99.90;;;;;;4972161;28;20270;-77
2021/03/08 08:32:05;;;;;;;4.67;1.53;;;3.80;99.90;;;;;;4973792;28;20343;-77
2021/03/08 08:34:31;;;;;;;2.30;1.80;;;3.70;99.90;;;;;;4987130;28;20192;-80
2021/03/08 08:37:05;;;;;;;2.47;1.83;;;3.50;99.90;;;;;;4980482;28;20215;-77
2021/03/08 08:39:31;;;;;;;1.67;1.40;;;3.30;99.90;;;;;;4977748;28;20714;-76
2021/03/08 08:42:20;;;;;;;5.17;2.57;;;3.20;99.90;;;;;;4978879;28;20269;-78
2021/03/08 08:44:53;;;;;;;3.27;1.60;;;3.20;99.90;;;;;;4979136;28;20235;-80
2021/03/08 08:47:25;;;;;;;2.07;1.70;;;3.00;99.90;;;;;;4976164;28;20730;-78
2021/03/08 08:49:54;;;;;;;6.00;2.17;;;2.90;99.90;;;;;;4998048;28;20239;-79
2021/03/08 08:52:42;;;;;;;1.30;1.20;;;2.90;99.90;;;;;;4982208;28;20196;-79
2021/03/08 08:55:08;;;;;;;2.43;1.73;;;2.90;99.90;;;;;;4973599;28;20199;-80
2021/03/08 08:57:34;;;;;;;2.80;1.97;;;2.60;99.90;;;;;;4978837;28;20316;-80
2021/03/08 09:00:15;;;;;;;1.83;1.30;;;2.70;99.90;;;;;;4977382;28;20471;-77
2021/03/08 09:02:40;;;;;;;2.70;2.20;;;2.80;99.90;;;;;;4972232;28;20209;-78
2021/03/08 09:05:29;;;;;;;1.60;1.30;;;3.00;99.90;;;;;;4976581;28;21146;-80
2021/03/08 09:08:23;;;;;;;1.43;1.17;;;3.20;99.90;;;;;;4970781;28;20717;-79
2021/03/08 09:10:49;;;;;;;3.93;1.60;;;3.30;99.90;;;;;;4978413;28;20176;-79
2021/03/08 09:13:15;;;;;;;3.17;1.80;;;3.40;99.90;;;;;;4977302;28;20204;-77
2021/03/08 09:15:41;;;;;;;5.90;1.80;;;3.50;99.90;;;;;;4975763;28;20192;-77
2021/03/08 09:18:09;;;;;;;2.37;1.10;;;3.40;99.90;;;;;;4978742;28;20208;-78
2021/03/08 09:20:36;;;;;;;1.90;1.43;;;3.40;99.90;;;;;;4979775;28;20196;-77
2021/03/08 09:23:03;;;;;;;4.10;2.23;;;3.50;99.90;;;;;;4980576;28;20259;-78
2021/03/08 09:25:38;;;;;;;3.23;1.43;;;3.70;99.90;;;;;;4980287;28;21055;-77
2021/03/08 09:28:11;;;;;;;2.17;1.10;;;3.80;99.90;;;;;;4981197;28;20589;-78
2021/03/08 09:30:48;;;;;;;1.57;1.00;;;4.10;99.90;;;;;;4984603;28;20263;-78
2021/03/08 09:33:19;;;;;;;4.30;2.07;;;4.20;99.90;;;;;;4984958;28;20251;-78
2021/03/08 09:35:50;;;;;;;1.30;0.90;;;4.20;99.90;;;;;;4982676;28;20177;-78
2021/03/08 09:38:26;;;;;;;2.43;1.33;;;4.20;99.90;;;;;;4985614;28;20196;-77
2021/03/08 09:40:56;;;;;;;1.47;0.83;;;4.20;99.90;;;;;;4986191;28;20251;-78
2021/03/08 09:43:32;;;;;;;2.10;1.47;;;4.30;99.90;;;;;;4979460;28;20203;-78
2021/03/08 09:46:02;;;;;;;1.80;1.30;;;4.60;99.90;;;;;;4983690;28;20189;-77
2021/03/08 09:48:29;;;;;;;1.20;1.10;;;4.70;99.90;;;;;;4984442;28;20188;-77
2021/03/08 09:51:03;;;;;;;1.87;1.67;;;4.80;99.90;;;;;;4984072;28;20224;-79
2021/03/08 09:53:33;;;;;;;3.53;1.30;;;4.80;99.90;;;;;;4985007;28;20215;-78
2021/03/08 09:56:14;;;;;;;1.33;1.20;;;4.60;99.90;;;;;;4986311;28;20189;-78
2021/03/08 09:58:40;;;;;;;2.93;1.27;;;4.90;99.90;;;;;;4984425;28;20176;-79
2021/03/08 10:01:17;;;;;;;3.07;1.20;;;5.10;99.90;;;;;;5017759;28;20706;-78
2021/03/08 10:03:43;;;;;;;1.87;1.20;;;5.20;99.90;;;;;;4986438;28;20216;-78
2021/03/08 10:06:21;;;;;;;0.87;0.87;;;5.00;99.90;;;;;;4984745;28;20180;-77
2021/03/08 10:08:46;;;;;;;2.37;1.07;;;4.80;99.90;;;;;;4984902;28;20185;-79
2021/03/08 10:11:23;;;;;;;2.43;1.43;;;5.00;99.90;;;;;;4980595;28;20192;-79
2021/03/08 10:13:49;;;;;;;1.47;1.07;;;5.20;99.90;;;;;;4980774;28;20207;-79
2021/03/08 10:16:26;;;;;;;1.07;0.97;;;5.00;99.90;;;;;;4980884;28;20196;-76
2021/03/08 10:18:52;;;;;;;1.63;0.93;;;4.90;99.90;;;;;;4993751;28;20214;-78
2021/03/08 10:21:19;;;;;;;1.60;1.07;;;4.80;99.90;;;;;;4977126;28;20231;-78
2021/03/08 10:23:45;;;;;;;4.37;1.30;;;4.70;99.90;;;;;;4978353;28;20785;-76
2021/03/08 10:26:16;;;;;;;1.23;1.00;;;4.80;99.90;;;;;;4976179;28;20227;-78
2021/03/08 10:28:48;;;;;;;1.87;0.80;;;5.00;99.90;;;;;;4973273;28;20189;-78
2021/03/08 10:31:29;;;;;;;2.30;1.00;;;5.00;99.90;;;;;;4974670;28;20195;-77
2021/03/08 10:34:07;;;;;;;0.50;0.40;;;5.10;99.90;;;;;;4984569;28;20247;-77
2021/03/08 10:36:41;;;;;;;1.00;0.90;;;5.00;99.90;;;;;;4984635;28;20196;-77
2021/03/08 10:39:13;;;;;;;1.33;0.90;;;4.80;99.90;;;;;;4978738;28;20194;-78
2021/03/08 10:41:40;;;;;;;1.63;0.90;;;4.70;99.90;;;;;;4977579;28;20184;-78
2021/03/08 10:44:06;;;;;;;1.23;0.80;;;4.70;99.90;;;;;;4972568;28;20623;-77
2021/03/08 10:46:34;;;;;;;0.77;0.70;;;4.40;99.90;;;;;;4975006;28;20188;-77
2021/03/08 10:49:03;;;;;;;1.40;0.93;;;4.40;99.90;;;;;;4974485;28;20189;-77
2021/03/08 10:51:29;;;;;;;1.73;1.23;;;4.60;99.90;;;;;;4980923;28;20280;-77
2021/03/08 10:53:55;;;;;;;0.93;0.87;;;4.70;99.90;;;;;;4978765;28;20213;-77
2021/03/08 10:56:21;;;;;;;2.77;1.50;;;4.80;99.90;;;;;;4979494;28;20192;-77
2021/03/08 10:58:47;;;;;;;1.23;0.90;;;4.70;99.90;;;;;;4974331;28;20483;-77
2021/03/08 11:01:13;;;;;;;1.00;0.90;;;4.50;99.90;;;;;;4977141;28;20693;-77
2021/03/08 11:03:40;;;;;;;1.67;1.27;;;4.40;99.90;;;;;;4974641;28;20221;-76
2021/03/08 11:06:14;;;;;;;1.00;0.73;;;4.40;99.90;;;;;;4983816;28;20198;-77
2021/03/08 11:08:53;;;;;;;0.97;0.77;;;4.40;99.90;;;;;;4994134;28;20279;-80
2021/03/08 11:11:20;;;;;;;1.53;0.80;;;4.40;99.90;;;;;;4975375;28;20180;-77
2021/03/08 11:13:46;;;;;;;1.27;0.93;;;4.20;99.90;;;;;;4977254;28;20455;-77
2021/03/08 11:16:13;;;;;;;0.87;0.77;;;4.10;99.90;;;;;;4980310;28;20251;-79
2021/03/08 11:18:43;;;;;;;0.83;0.70;;;4.00;99.90;;;;;;4976790;28;20232;-77
2021/03/08 11:21:23;;;;;;;0.70;0.60;;;4.00;99.90;;;;;;4982520;28;20192;-78
2021/03/08 11:23:49;;;;;;;1.60;1.00;;;4.40;99.90;;;;;;4977820;28;20207;-78
2021/03/08 11:26:15;;;;;;;1.10;0.37;;;4.50;99.90;;;;;;4989384;28;20312;-77
2021/03/08 11:28:42;;;;;;;1.40;0.50;;;4.70;99.90;;;;;;4973678;28;20279;-78
2021/03/08 11:31:22;;;;;;;0.43;0.27;;;4.90;99.90;;;;;;4981659;28;20195;-77
2021/03/08 11:33:53;;;;;;;0.33;0.33;;;5.20;99.90;;;;;;4970314;28;20216;-78
2021/03/08 11:36:34;;;;;;;0.20;0.20;;;5.50;99.90;;;;;;4971957;28;20190;-77
2021/03/08 11:39:04;;;;;;;1.20;1.10;;;5.40;99.90;;;;;;4972321;28;20685;-78
2021/03/08 11:41:31;;;;;;;0.30;0.30;;;5.30;99.90;;;;;;4969552;28;20193;-78
2021/03/08 11:43:57;;;;;;;0.77;0.20;;;5.50;99.90;;;;;;4963748;28;20422;-78
2021/03/08 11:46:23;;;;;;;0.20;0.20;;;5.40;99.90;;;;;;4975287;28;20224;-78
2021/03/08 11:48:48;;;;;;;0.40;0.30;;;5.20;99.90;;;;;;4969494;28;20663;-77
2021/03/08 11:51:19;;;;;;;0.40;0.30;;;5.10;99.90;;;;;;4970755;28;20215;-78
2021/03/08 11:53:45;;;;;;;1.30;0.83;;;4.80;99.90;;;;;;4992552;28;20212;-78
2021/03/08 11:56:10;;;;;;;0.23;0.23;;;4.40;99.90;;;;;;4975608;28;20216;-78
2021/03/08 11:58:36;;;;;;;0.20;0.20;;;4.30;99.90;;;;;;4980564;28;21045;-78
2021/03/08 12:01:02;;;;;;;0.43;0.40;;;4.50;99.90;;;;;;4977880;28;20255;-79
2021/03/08 12:03:27;;;;;;;0.47;0.30;;;4.70;99.90;;;;;;4971437;28;20243;-76
2021/03/08 12:05:53;;;;;;;0.27;0.27;;;4.90;99.90;;;;;;4968342;28;20640;-78
2021/03/08 12:08:18;;;;;;;0.93;0.80;;;5.00;99.90;;;;;;4977771;28;20425;-79
2021/03/08 12:10:44;;;;;;;0.33;0.33;;;4.90;99.90;;;;;;4980021;28;20270;-78
2021/03/08 12:13:09;;;;;;;2.20;0.30;;;4.80;99.90;;;;;;4983533;28;20212;-77
2021/03/08 12:15:35;;;;;;;1.13;0.50;;;4.60;99.90;;;;;;4976738;28;20659;-77
2021/03/08 12:18:01;;;;;;;0.63;0.50;;;4.60;99.90;;;;;;4971366;28;20189;-77
2021/03/08 12:20:26;;;;;;;0.90;0.60;;;4.80;99.90;;;;;;4986642;28;20185;-78
2021/03/08 12:22:52;;;;;;;1.17;0.37;;;5.10;99.90;;;;;;4971396;28;20275;-77
2021/03/08 12:25:17;;;;;;;0.30;0.20;;;5.20;99.90;;;;;;4990744;28;20213;-78
2021/03/08 12:27:43;;;;;;;0.30;0.23;;;5.40;99.90;;;;;;4975083;28;20636;-76
2021/03/08 12:30:09;;;;;;;0.50;0.50;;;5.40;99.90;;;;;;4986829;28;20736;-79
2021/03/08 12:32:35;;;;;;;1.23;0.50;;;5.30;99.90;;;;;;4970271;28;20209;-77
2021/03/08 12:35:00;;;;;;;1.43;0.37;;;5.40;99.90;;;;;;4973637;28;20189;-79
2021/03/08 12:37:26;;;;;;;1.13;0.40;;;5.50;99.90;;;;;;4971276;28;20263;-77
2021/03/08 12:39:52;;;;;;;0.30;0.30;;;5.50;99.90;;;;;;4973915;28;20193;-77
2021/03/08 12:42:17;;;;;;;0.53;0.27;;;5.40;99.90;;;;;;4972735;28;20193;-78
2021/03/08 12:44:43;;;;;;;0.90;0.60;;;5.20;99.90;;;;;;4986399;28;20239;-78
2021/03/08 12:47:09;;;;;;;1.80;0.60;;;5.00;99.90;;;;;;4975841;28;20200;-76
2021/03/08 12:49:35;;;;;;;0.47;0.30;;;5.10;99.90;;;;;;4970639;28;20246;-76
2021/03/08 12:52:00;;;;;;;0.53;0.33;;;5.30;99.90;;;;;;4968336;28;20696;-79
2021/03/08 12:54:26;;;;;;;1.30;0.57;;;5.50;99.90;;;;;;4977235;28;20568;-78
2021/03/08 12:56:52;;;;;;;0.60;0.50;;;5.40;99.90;;;;;;4971940;28;20283;-78
2021/03/08 12:59:17;;;;;;;0.57;0.23;;;5.40;99.90;;;;;;4975497;28;20195;-80
2021/03/08 13:01:43;;;;;;;0.30;0.20;;;5.70;99.90;;;;;;4974589;28;20193;-78
2021/03/08 13:04:08;;;;;;;0.20;0.20;;;5.70;99.90;;;;;;4987191;28;20216;-78
2021/03/08 13:06:34;;;;;;;0.40;0.40;;;5.80;99.90;;;;;;4971984;28;20647;-79
2021/03/08 13:09:00;;;;;;;0.33;0.33;;;5.80;99.90;;;;;;4973227;28;20905;-80
2021/03/08 13:11:25;;;;;;;1.17;0.83;;;6.00;99.90;;;;;;4968622;28;20247;-78